Minnesota City, Minnesota
Current Conditions -  °F | °C
As of 6:54 AM on Saturday 20 Dec 2014 (Local Time) from KONA Reporting Station
Overcast Overcast  
Wind Chill: 30°   Ceiling: 1600
Heat Index: 30°   Visibility: 10mi
Dew Point: 27°   Wind: 3mph
Humidity: 86%   Direction: 130°SE
Pressure: 30.21"   Gusts: NA
Location:  44.09°N, 91.75°W
Report Text: KONA 201254Z AUTO 13003KT 10SM BKN016 OVC021 M01/M03 A3021 RMK AO2
Loading
Personal Weather Stations






























Interactive Weather Map New forecast layout! Learn more

10-Day Weather Forecast

Advertisements
Track Severe Weather on mobile